sensor_id;sensor_type;location;lat;lon;timestamp;pressure;altitude;pressure_sealevel;temperature;humidity
71361;BME280;59166;48.908;1.870;2024-03-17T00:00:17;100863.31;;;12.12;100.00
71361;BME280;59166;48.908;1.870;2024-03-17T00:05:18;100857.84;;;12.07;100.00
71361;BME280;59166;48.908;1.870;2024-03-17T00:10:20;100864.53;;;11.99;100.00
71361;BME280;59166;48.908;1.870;2024-03-17T00:15:21;100868.34;;;11.98;100.00
71361;BME280;59166;48.908;1.870;2024-03-17T00:20:22;100863.84;;;11.82;100.00
71361;BME280;59166;48.908;1.870;2024-03-17T00:25:24;100851.38;;;11.81;100.00
71361;BME280;59166;48.908;1.870;2024-03-17T00:30:25;100851.81;;;11.73;100.00
71361;BME280;59166;48.908;1.870;2024-03-17T00:35:26;100836.34;;;11.68;100.00
71361;BME280;59166;48.908;1.870;2024-03-17T00:40:28;100837.66;;;11.66;100.00
71361;BME280;59166;48.908;1.870;2024-03-17T00:45:29;100833.88;;;11.67;100.00
71361;BME280;59166;48.908;1.870;2024-03-17T00:50:30;100833.28;;;11.60;100.00
71361;BME280;59166;48.908;1.870;2024-03-17T00:55:33;100824.59;;;11.58;100.00
71361;BME280;59166;48.908;1.870;2024-03-17T01:00:34;100831.94;;;11.62;100.00
71361;BME280;59166;48.908;1.870;2024-03-17T01:05:37;100829.19;;;11.57;100.00
71361;BME280;59166;48.908;1.870;2024-03-17T01:10:40;100819.19;;;11.58;100.00
71361;BME280;59166;48.908;1.870;2024-03-17T01:15:41;100810.25;;;11.57;100.00
71361;BME280;59166;48.908;1.870;2024-03-17T01:20:42;100799.13;;;11.54;100.00
71361;BME280;59166;48.908;1.870;2024-03-17T01:25:45;100795.78;;;11.47;100.00
71361;BME280;59166;48.908;1.870;2024-03-17T01:30:45;100801.75;;;11.49;100.00
71361;BME280;59166;48.908;1.870;2024-03-17T01:35:46;100795.28;;;11.50;100.00
71361;BME280;59166;48.908;1.870;2024-03-17T01:40:49;100779.03;;;11.50;100.00
71361;BME280;59166;48.908;1.870;2024-03-17T01:45:50;100778.19;;;11.44;100.00
71361;BME280;59166;48.908;1.870;2024-03-17T01:50:52;100767.09;;;11.46;100.00
71361;BME280;59166;48.908;1.870;2024-03-17T01:55:57;100755.53;;;11.50;100.00
71361;BME280;59166;48.908;1.870;2024-03-17T02:00:59;100759.34;;;11.54;100.00
71361;BME280;59166;48.908;1.870;2024-03-17T02:06:00;100759.03;;;11.51;100.00
71361;BME280;59166;48.908;1.870;2024-03-17T02:11:02;100760.63;;;11.47;100.00
71361;BME280;59166;48.908;1.870;2024-03-17T02:16:03;100750.63;;;11.47;100.00
71361;BME280;59166;48.908;1.870;2024-03-17T02:21:04;100745.44;;;11.46;100.00
71361;BME280;59166;48.908;1.870;2024-03-17T02:26:07;100747.09;;;11.47;100.00
71361;BME280;59166;48.908;1.870;2024-03-17T02:31:09;100744.16;;;11.48;100.00
71361;BME280;59166;48.908;1.870;2024-03-17T02:36:10;100730.88;;;11.47;100.00
71361;BME280;59166;48.908;1.870;2024-03-17T02:41:12;100720.88;;;11.47;100.00
71361;BME280;59166;48.908;1.870;2024-03-17T02:46:15;100723.50;;;11.42;100.00
71361;BME280;59166;48.908;1.870;2024-03-17T02:51:17;100715.69;;;11.46;100.00
71361;BME280;59166;48.908;1.870;2024-03-17T02:56:20;100729.53;;;11.49;100.00
71361;BME280;59166;48.908;1.870;2024-03-17T03:01:20;100733.59;;;11.52;100.00
71361;BME280;59166;48.908;1.870;2024-03-17T03:06:21;100736.38;;;11.57;100.00
71361;BME280;59166;48.908;1.870;2024-03-17T03:11:24;100730.72;;;11.58;100.00
71361;BME280;59166;48.908;1.870;2024-03-17T03:16:24;100731.78;;;11.57;100.00
71361;BME280;59166;48.908;1.870;2024-03-17T03:21:25;100730.41;;;11.55;100.00
71361;BME280;59166;48.908;1.870;2024-03-17T03:26:28;100727.91;;;11.48;100.00
71361;BME280;59166;48.908;1.870;2024-03-17T03:31:29;100736.78;;;11.44;100.00
71361;BME280;59166;48.908;1.870;2024-03-17T03:36:29;100730.53;;;11.38;100.00
71361;BME280;59166;48.908;1.870;2024-03-17T03:41:32;100735.09;;;11.38;100.00
71361;BME280;59166;48.908;1.870;2024-03-17T03:46:33;100735.94;;;11.38;100.00
71361;BME280;59166;48.908;1.870;2024-03-17T03:51:34;100720.19;;;11.35;100.00
71361;BME280;59166;48.908;1.870;2024-03-17T03:56:36;100715.03;;;11.33;100.00
71361;BME280;59166;48.908;1.870;2024-03-17T04:01:37;100711.53;;;11.33;100.00
71361;BME280;59166;48.908;1.870;2024-03-17T04:06:38;100712.59;;;11.32;100.00
71361;BME280;59166;48.908;1.870;2024-03-17T04:11:40;100702.25;;;11.24;100.00
71361;BME280;59166;48.908;1.870;2024-03-17T04:16:41;100687.59;;;11.20;100.00
71361;BME280;59166;48.908;1.870;2024-03-17T04:21:42;100679.72;;;11.18;100.00
71361;BME280;59166;48.908;1.870;2024-03-17T04:26:44;100676.50;;;11.21;100.00
71361;BME280;59166;48.908;1.870;2024-03-17T04:31:45;100688.34;;;11.15;100.00
71361;BME280;59166;48.908;1.870;2024-03-17T04:36:46;100684.88;;;11.20;100.00
71361;BME280;59166;48.908;1.870;2024-03-17T04:41:49;100679.16;;;11.16;100.00
71361;BME280;59166;48.908;1.870;2024-03-17T04:46:49;100674.88;;;11.20;100.00
71361;BME280;59166;48.908;1.870;2024-03-17T04:51:50;100666.78;;;11.20;100.00
71361;BME280;59166;48.908;1.870;2024-03-17T04:56:53;100661.31;;;11.15;100.00
71361;BME280;59166;48.908;1.870;2024-03-17T05:01:54;100659.69;;;11.14;100.00
71361;BME280;59166;48.908;1.870;2024-03-17T05:06:55;100658.66;;;11.20;100.00
71361;BME280;59166;48.908;1.870;2024-03-17T05:11:57;100661.38;;;11.20;100.00
71361;BME280;59166;48.908;1.870;2024-03-17T05:16:58;100652.38;;;11.15;100.00
71361;BME280;59166;48.908;1.870;2024-03-17T05:21:59;100649.44;;;11.16;100.00
71361;BME280;59166;48.908;1.870;2024-03-17T05:27:01;100647.56;;;11.22;100.00
71361;BME280;59166;48.908;1.870;2024-03-17T05:32:02;100641.34;;;11.21;100.00
71361;BME280;59166;48.908;1.870;2024-03-17T05:37:04;100641.44;;;11.31;100.00
71361;BME280;59166;48.908;1.870;2024-03-17T05:42:06;100640.88;;;11.24;100.00
71361;BME280;59166;48.908;1.870;2024-03-17T05:47:07;100643.06;;;11.27;100.00
71361;BME280;59166;48.908;1.870;2024-03-17T05:52:08;100647.56;;;11.22;100.00
71361;BME280;59166;48.908;1.870;2024-03-17T05:57:10;100653.50;;;11.19;100.00
71361;BME280;59166;48.908;1.870;2024-03-17T06:02:11;100662.97;;;11.21;100.00
71361;BME280;59166;48.908;1.870;2024-03-17T06:07:12;100648.16;;;11.24;100.00
71361;BME280;59166;48.908;1.870;2024-03-17T06:12:15;100652.75;;;11.23;100.00
71361;BME280;59166;48.908;1.870;2024-03-17T06:17:15;100645.75;;;11.27;100.00
71361;BME280;59166;48.908;1.870;2024-03-17T06:22:16;100647.13;;;11.30;100.00
71361;BME280;59166;48.908;1.870;2024-03-17T06:27:18;100644.94;;;11.27;100.00
71361;BME280;59166;48.908;1.870;2024-03-17T06:32:19;100641.94;;;11.28;100.00
71361;BME280;59166;48.908;1.870;2024-03-17T06:37:22;100644.13;;;11.26;100.00
71361;BME280;59166;48.908;1.870;2024-03-17T06:42:24;100651.16;;;11.27;100.00
71361;BME280;59166;48.908;1.870;2024-03-17T06:47:25;100642.78;;;11.29;100.00
71361;BME280;59166;48.908;1.870;2024-03-17T06:52:25;100642.53;;;11.30;100.00
71361;BME280;59166;48.908;1.870;2024-03-17T06:57:28;100640.13;;;11.34;100.00
71361;BME280;59166;48.908;1.870;2024-03-17T07:02:29;100639.91;;;11.41;100.00
71361;BME280;59166;48.908;1.870;2024-03-17T07:07:29;100651.88;;;11.45;100.00
71361;BME280;59166;48.908;1.870;2024-03-17T07:12:32;100654.06;;;11.53;100.00
71361;BME280;59166;48.908;1.870;2024-03-17T07:17:33;100657.59;;;11.53;100.00
71361;BME280;59166;48.908;1.870;2024-03-17T07:22:34;100660.84;;;11.55;100.00
71361;BME280;59166;48.908;1.870;2024-03-17T07:27:36;100648.13;;;11.51;100.00
71361;BME280;59166;48.908;1.870;2024-03-17T07:32:37;100647.84;;;11.52;100.00
71361;BME280;59166;48.908;1.870;2024-03-17T07:37:38;100636.50;;;11.55;100.00
71361;BME280;59166;48.908;1.870;2024-03-17T07:42:40;100637.94;;;11.63;100.00
71361;BME280;59166;48.908;1.870;2024-03-17T07:47:41;100635.03;;;11.74;100.00
71361;BME280;59166;48.908;1.870;2024-03-17T07:52:42;100644.84;;;11.85;100.00
71361;BME280;59166;48.908;1.870;2024-03-17T07:57:44;100642.44;;;11.89;100.00
71361;BME280;59166;48.908;1.870;2024-03-17T08:02:45;100638.97;;;11.94;100.00
71361;BME280;59166;48.908;1.870;2024-03-17T08:07:46;100631.66;;;11.99;100.00
71361;BME280;59166;48.908;1.870;2024-03-17T08:12:48;100633.31;;;12.00;100.00
71361;BME280;59166;48.908;1.870;2024-03-17T08:17:49;100638.19;;;12.03;100.00
71361;BME280;59166;48.908;1.870;2024-03-17T08:22:50;100633.59;;;12.04;100.00
71361;BME280;59166;48.908;1.870;2024-03-17T08:27:52;100629.56;;;12.06;100.00
71361;BME280;59166;48.908;1.870;2024-03-17T08:32:53;100620.38;;;12.07;100.00
71361;BME280;59166;48.908;1.870;2024-03-17T08:37:54;100630.13;;;12.08;100.00
71361;BME280;59166;48.908;1.870;2024-03-17T08:42:56;100619.59;;;12.12;100.00
71361;BME280;59166;48.908;1.870;2024-03-17T08:47:57;100611.47;;;12.17;100.00
71361;BME280;59166;48.908;1.870;2024-03-17T08:52:58;100616.38;;;12.20;100.00
71361;BME280;59166;48.908;1.870;2024-03-17T08:58:00;100605.00;;;12.23;100.00
71361;BME280;59166;48.908;1.870;2024-03-17T09:03:01;100623.16;;;12.22;100.00
71361;BME280;59166;48.908;1.870;2024-03-17T09:08:02;100605.75;;;12.13;100.00
71361;BME280;59166;48.908;1.870;2024-03-17T09:13:04;100607.69;;;12.18;100.00
71361;BME280;59166;48.908;1.870;2024-03-17T09:18:05;100600.94;;;12.20;100.00
71361;BME280;59166;48.908;1.870;2024-03-17T09:23:06;100600.94;;;12.20;100.00
71361;BME280;59166;48.908;1.870;2024-03-17T09:28:08;100609.91;;;12.26;100.00
71361;BME280;59166;48.908;1.870;2024-03-17T09:33:09;100612.06;;;12.24;100.00
71361;BME280;59166;48.908;1.870;2024-03-17T09:38:09;100611.31;;;12.33;100.00
71361;BME280;59166;48.908;1.870;2024-03-17T09:43:12;100608.34;;;12.35;100.00
71361;BME280;59166;48.908;1.870;2024-03-17T09:48:15;100601.03;;;12.35;100.00
71361;BME280;59166;48.908;1.870;2024-03-17T09:53:16;100591.56;;;12.38;100.00
71361;BME280;59166;48.908;1.870;2024-03-17T09:58:18;100606.75;;;12.44;100.00
71361;BME280;59166;48.908;1.870;2024-03-17T10:03:44;100608.09;;;12.42;100.00
71361;BME280;59166;48.908;1.870;2024-03-17T10:08:46;100603.22;;;12.38;100.00
71361;BME280;59166;48.908;1.870;2024-03-17T10:13:59;100605.94;;;12.44;100.00
71361;BME280;59166;48.908;1.870;2024-03-17T10:19:08;100600.22;;;12.40;100.00
71361;BME280;59166;48.908;1.870;2024-03-17T10:24:10;100584.84;;;12.51;100.00
71361;BME280;59166;48.908;1.870;2024-03-17T10:29:24;100581.63;;;12.59;100.00
71361;BME280;59166;48.908;1.870;2024-03-17T10:34:26;100574.84;;;12.61;100.00
71361;BME280;59166;48.908;1.870;2024-03-17T10:39:27;100573.75;;;12.57;100.00
71361;BME280;59166;48.908;1.870;2024-03-17T10:44:31;100578.38;;;12.62;100.00
71361;BME280;59166;48.908;1.870;2024-03-17T10:49:33;100584.59;;;12.62;100.00
71361;BME280;59166;48.908;1.870;2024-03-17T10:54:34;100569.16;;;12.68;100.00
71361;BME280;59166;48.908;1.870;2024-03-17T10:59:39;100568.63;;;12.66;100.00
71361;BME280;59166;48.908;1.870;2024-03-17T11:04:41;100557.78;;;12.66;100.00
71361;BME280;59166;48.908;1.870;2024-03-17T11:09:42;100559.13;;;12.63;100.00
71361;BME280;59166;48.908;1.870;2024-03-17T11:14:45;100546.38;;;12.64;100.00
71361;BME280;59166;48.908;1.870;2024-03-17T11:20:10;100549.38;;;12.67;100.00
71361;BME280;59166;48.908;1.870;2024-03-17T11:25:48;100541.00;;;12.69;100.00
71361;BME280;59166;48.908;1.870;2024-03-17T11:30:53;100533.41;;;12.76;100.00
71361;BME280;59166;48.908;1.870;2024-03-17T11:36:29;100536.38;;;12.74;100.00
71361;BME280;59166;48.908;1.870;2024-03-17T11:41:31;100532.59;;;12.75;100.00
71361;BME280;59166;48.908;1.870;2024-03-17T11:46:36;100524.16;;;12.67;100.00
71361;BME280;59166;48.908;1.870;2024-03-17T11:51:38;100537.19;;;12.65;100.00
71361;BME280;59166;48.908;1.870;2024-03-17T11:56:40;100520.66;;;12.71;100.00
71361;BME280;59166;48.908;1.870;2024-03-17T12:01:42;100523.63;;;12.75;100.00
71361;BME280;59166;48.908;1.870;2024-03-17T12:06:47;100535.00;;;12.67;100.00
71361;BME280;59166;48.908;1.870;2024-03-17T12:11:49;100538.56;;;12.72;100.00
71361;BME280;59166;48.908;1.870;2024-03-17T12:16:53;100530.13;;;12.74;100.00
71361;BME280;59166;48.908;1.870;2024-03-17T12:21:56;100527.72;;;12.72;100.00
71361;BME280;59166;48.908;1.870;2024-03-17T12:26:58;100520.94;;;12.80;100.00
71361;BME280;59166;48.908;1.870;2024-03-17T12:32:02;100519.03;;;12.90;100.00
71361;BME280;59166;48.908;1.870;2024-03-17T12:37:04;100512.81;;;12.95;100.00
71361;BME280;59166;48.908;1.870;2024-03-17T12:42:06;100507.13;;;12.97;100.00
71361;BME280;59166;48.908;1.870;2024-03-17T12:47:17;100505.22;;;13.02;100.00
71361;BME280;59166;48.908;1.870;2024-03-17T12:52:18;100501.97;;;13.05;100.00
71361;BME280;59166;48.908;1.870;2024-03-17T12:57:20;100494.09;;;13.09;100.00
71361;BME280;59166;48.908;1.870;2024-03-17T13:02:22;100494.38;;;13.12;100.00
71361;BME280;59166;48.908;1.870;2024-03-17T13:07:23;100492.47;;;13.18;100.00
71361;BME280;59166;48.908;1.870;2024-03-17T13:12:24;100488.38;;;13.25;100.00
71361;BME280;59166;48.908;1.870;2024-03-17T13:17:26;100488.94;;;13.32;100.00
71361;BME280;59166;48.908;1.870;2024-03-17T13:22:27;100473.41;;;13.53;100.00
71361;BME280;59166;48.908;1.870;2024-03-17T13:27:28;100473.66;;;13.62;100.00
71361;BME280;59166;48.908;1.870;2024-03-17T13:32:30;100458.19;;;13.72;100.00
71361;BME280;59166;48.908;1.870;2024-03-17T13:37:31;100455.22;;;13.64;100.00
71361;BME280;59166;48.908;1.870;2024-03-17T13:42:31;100448.41;;;13.71;100.00
71361;BME280;59166;48.908;1.870;2024-03-17T13:47:34;100445.59;;;13.97;100.00
71361;BME280;59166;48.908;1.870;2024-03-17T13:52:34;100438.47;;;14.11;100.00
71361;BME280;59166;48.908;1.870;2024-03-17T13:57:35;100439.44;;;14.30;100.00
71361;BME280;59166;48.908;1.870;2024-03-17T14:02:37;100448.78;;;14.53;100.00
71361;BME280;59166;48.908;1.870;2024-03-17T14:07:38;100452.41;;;14.77;100.00
71361;BME280;59166;48.908;1.870;2024-03-17T14:12:39;100447.13;;;14.96;100.00
71361;BME280;59166;48.908;1.870;2024-03-17T14:17:42;100453.81;;;15.08;100.00
71361;BME280;59166;48.908;1.870;2024-03-17T14:22:44;100445.06;;;15.11;100.00
71361;BME280;59166;48.908;1.870;2024-03-17T14:27:46;100449.03;;;15.24;100.00
71361;BME280;59166;48.908;1.870;2024-03-17T14:32:48;100438.25;;;15.37;100.00
71361;BME280;59166;48.908;1.870;2024-03-17T14:37:50;100437.47;;;15.61;100.00
71361;BME280;59166;48.908;1.870;2024-03-17T14:42:52;100424.44;;;16.00;100.00
71361;BME280;59166;48.908;1.870;2024-03-17T14:47:54;100414.59;;;16.04;100.00
71361;BME280;59166;48.908;1.870;2024-03-17T14:52:55;100418.59;;;16.12;100.00
71361;BME280;59166;48.908;1.870;2024-03-17T14:57:56;100414.88;;;16.59;100.00
71361;BME280;59166;48.908;1.870;2024-03-17T15:02:58;100414.03;;;16.77;100.00
71361;BME280;59166;48.908;1.870;2024-03-17T15:07:59;100405.22;;;16.66;100.00
71361;BME280;59166;48.908;1.870;2024-03-17T15:12:59;100411.25;;;16.82;100.00
71361;BME280;59166;48.908;1.870;2024-03-17T15:18:01;100405.75;;;16.68;100.00
71361;BME280;59166;48.908;1.870;2024-03-17T15:23:02;100411.94;;;16.87;100.00
71361;BME280;59166;48.908;1.870;2024-03-17T15:38:03;100407.72;;;17.27;100.00
71361;BME280;59166;48.908;1.870;2024-03-17T15:49:05;100404.56;;;17.20;100.00
71361;BME280;59166;48.908;1.870;2024-03-17T15:54:06;100401.22;;;17.23;100.00
71361;BME280;59166;48.908;1.870;2024-03-17T15:59:07;100417.31;;;17.25;100.00
71361;BME280;59166;48.908;1.870;2024-03-17T16:09:02;100402.34;;;16.90;100.00
71361;BME280;59166;48.908;1.870;2024-03-17T16:14:03;100407.31;;;16.88;100.00
71361;BME280;59166;48.908;1.870;2024-03-17T16:19:07;100412.06;;;16.64;100.00
71361;BME280;59166;48.908;1.870;2024-03-17T16:24:10;100412.63;;;16.28;100.00
71361;BME280;59166;48.908;1.870;2024-03-17T16:29:11;100407.75;;;16.25;100.00
71361;BME280;59166;48.908;1.870;2024-03-17T16:34:12;100409.97;;;16.23;100.00
71361;BME280;59166;48.908;1.870;2024-03-17T16:39:15;100419.72;;;16.11;100.00
71361;BME280;59166;48.908;1.870;2024-03-17T16:58:00;100401.75;;;15.86;100.00
71361;BME280;59166;48.908;1.870;2024-03-17T17:09:11;100398.69;;;15.69;100.00
71361;BME280;59166;48.908;1.870;2024-03-17T17:21:04;100402.63;;;15.58;100.00
71361;BME280;59166;48.908;1.870;2024-03-17T17:26:09;100399.91;;;15.58;100.00
71361;BME280;59166;48.908;1.870;2024-03-17T17:56:05;100401.91;;;15.52;100.00
71361;BME280;59166;48.908;1.870;2024-03-17T18:01:07;100389.50;;;15.41;100.00
71361;BME280;59166;48.908;1.870;2024-03-17T18:12:03;100377.16;;;15.25;100.00
71361;BME280;59166;48.908;1.870;2024-03-17T18:17:04;100381.41;;;15.12;100.00
71361;BME280;59166;48.908;1.870;2024-03-17T18:22:04;100386.19;;;14.91;100.00
71361;BME280;59166;48.908;1.870;2024-03-17T18:27:07;100399.91;;;14.76;100.00
71361;BME280;59166;48.908;1.870;2024-03-17T18:52:11;100392.81;;;14.52;100.00
71361;BME280;59166;48.908;1.870;2024-03-17T19:02:27;100389.28;;;14.46;100.00
71361;BME280;59166;48.908;1.870;2024-03-17T19:07:28;100388.50;;;14.46;100.00
71361;BME280;59166;48.908;1.870;2024-03-17T19:17:55;100383.63;;;14.42;100.00
71361;BME280;59166;48.908;1.870;2024-03-17T19:22:56;100388.28;;;14.37;100.00
71361;BME280;59166;48.908;1.870;2024-03-17T20:21:45;100365.50;;;13.94;100.00
71361;BME280;59166;48.908;1.870;2024-03-17T20:26:48;100357.91;;;13.91;100.00
71361;BME280;59166;48.908;1.870;2024-03-17T20:31:49;100359.25;;;13.88;100.00
71361;BME280;59166;48.908;1.870;2024-03-17T20:36:55;100358.69;;;13.91;100.00
71361;BME280;59166;48.908;1.870;2024-03-17T20:42:10;100361.19;;;13.83;100.00
71361;BME280;59166;48.908;1.870;2024-03-17T20:47:14;100365.25;;;13.85;100.00
71361;BME280;59166;48.908;1.870;2024-03-17T20:52:23;100369.41;;;13.73;100.00
71361;BME280;59166;48.908;1.870;2024-03-17T20:57:25;100363.97;;;13.78;100.00
71361;BME280;59166;48.908;1.870;2024-03-17T21:02:26;100366.69;;;13.78;100.00
71361;BME280;59166;48.908;1.870;2024-03-17T21:07:29;100372.63;;;13.75;100.00
71361;BME280;59166;48.908;1.870;2024-03-17T21:12:30;100367.50;;;13.73;100.00
71361;BME280;59166;48.908;1.870;2024-03-17T22:06:10;100321.69;;;13.52;100.00
71361;BME280;59166;48.908;1.870;2024-03-17T22:11:12;100331.47;;;13.53;100.00
71361;BME280;59166;48.908;1.870;2024-03-17T22:16:31;100325.28;;;13.42;100.00
71361;BME280;59166;48.908;1.870;2024-03-17T22:21:33;100316.91;;;13.33;100.00
71361;BME280;59166;48.908;1.870;2024-03-17T22:26:36;100319.38;;;13.30;100.00
71361;BME280;59166;48.908;1.870;2024-03-17T22:31:38;100321.81;;;13.21;100.00
71361;BME280;59166;48.908;1.870;2024-03-17T22:36:46;100311.00;;;13.16;100.00
71361;BME280;59166;48.908;1.870;2024-03-17T22:41:53;100298.53;;;13.15;100.00
71361;BME280;59166;48.908;1.870;2024-03-17T22:46:54;100301.81;;;13.12;100.00
71361;BME280;59166;48.908;1.870;2024-03-17T22:51:57;100291.75;;;13.13;100.00
71361;BME280;59166;48.908;1.870;2024-03-17T22:57:16;100293.63;;;13.17;100.00
71361;BME280;59166;48.908;1.870;2024-03-17T23:02:22;100284.44;;;13.13;100.00
71361;BME280;59166;48.908;1.870;2024-03-17T23:07:25;100299.88;;;13.18;100.00
71361;BME280;59166;48.908;1.870;2024-03-17T23:12:26;100299.06;;;13.17;100.00
71361;BME280;59166;48.908;1.870;2024-03-17T23:17:27;100299.06;;;13.17;100.00
71361;BME280;59166;48.908;1.870;2024-03-17T23:22:29;100297.66;;;13.25;100.00
71361;BME280;59166;48.908;1.870;2024-03-17T23:32:24;100300.38;;;13.25;100.00
71361;BME280;59166;48.908;1.870;2024-03-17T23:37:25;100316.97;;;13.18;100.00
71361;BME280;59166;48.908;1.870;2024-03-17T23:42:26;100316.41;;;13.21;100.00
71361;BME280;59166;48.908;1.870;2024-03-17T23:47:29;100299.88;;;13.23;100.00
71361;BME280;59166;48.908;1.870;2024-03-17T23:52:29;100325.56;;;13.35;100.00
71361;BME280;59166;48.908;1.870;2024-03-17T23:57:31;100316.66;;;13.30;100.00
